createdAt,value
2023-08-07T00:00:20.311Z,2.30
2023-08-07T00:02:47.315Z,2.40
2023-08-07T00:05:14.207Z,2.27
2023-08-07T00:07:41.244Z,2.60
2023-08-07T00:10:08.425Z,2.43
2023-08-07T00:12:35.066Z,2.83
2023-08-07T00:15:02.865Z,2.50
2023-08-07T00:17:29.946Z,2.30
2023-08-07T00:19:56.668Z,2.10
2023-08-07T00:22:23.514Z,2.50
2023-08-07T00:24:50.155Z,2.57
2023-08-07T00:27:16.787Z,2.60
2023-08-07T00:29:43.534Z,2.23
2023-08-07T00:32:10.266Z,2.27
2023-08-07T00:34:37.004Z,2.27
2023-08-07T00:37:03.713Z,2.23
2023-08-07T00:39:30.390Z,2.30
2023-08-07T00:41:57.022Z,2.40
2023-08-07T00:44:24.575Z,2.27
2023-08-07T00:46:51.546Z,2.50
2023-08-07T00:49:19.803Z,3.00
2023-08-07T00:51:46.716Z,2.23
2023-08-07T00:54:16.248Z,2.70
2023-08-07T00:56:42.880Z,2.27
2023-08-07T00:59:10.866Z,2.00
2023-08-07T01:01:37.875Z,2.67
2023-08-07T01:04:04.738Z,2.47
2023-08-07T01:06:31.475Z,2.50
2023-08-07T01:08:58.598Z,2.67
2023-08-07T01:11:46.908Z,2.30
2023-08-07T01:14:35.227Z,2.10
2023-08-07T01:17:15.486Z,2.50
2023-08-07T01:19:42.492Z,2.40
2023-08-07T01:22:19.202Z,2.73
2023-08-07T01:24:50.882Z,2.60
2023-08-07T01:27:20.531Z,2.13
2023-08-07T01:30:01.966Z,2.40
2023-08-07T01:32:49.869Z,2.33
2023-08-07T01:35:18.529Z,2.90
2023-08-07T01:37:47.761Z,2.30
2023-08-07T01:40:15.027Z,2.77
2023-08-07T01:42:41.874Z,2.70
2023-08-07T01:45:08.823Z,2.80
2023-08-07T01:47:35.876Z,2.30
2023-08-07T01:50:03.303Z,3.10
2023-08-07T01:52:30.075Z,2.70
2023-08-07T01:54:56.880Z,2.53
2023-08-07T01:57:23.639Z,3.10
2023-08-07T01:59:50.513Z,2.97
2023-08-07T02:02:17.172Z,2.80
2023-08-07T02:04:44.393Z,2.60
2023-08-07T02:07:11.114Z,3.03
2023-08-07T02:09:37.755Z,2.97
2023-08-07T02:12:05.005Z,3.40
2023-08-07T02:14:31.748Z,2.97
2023-08-07T02:16:58.382Z,2.83
2023-08-07T02:19:25.023Z,3.47
2023-08-07T02:21:51.661Z,2.87
2023-08-07T02:24:19.856Z,3.43
2023-08-07T02:26:46.486Z,2.50
2023-08-07T02:29:13.107Z,3.30
2023-08-07T02:31:39.816Z,3.23
2023-08-07T02:34:06.461Z,3.37
2023-08-07T02:36:33.128Z,3.00
2023-08-07T02:38:59.782Z,2.93
2023-08-07T02:41:26.400Z,2.97
2023-08-07T02:43:53.042Z,3.20
2023-08-07T02:46:19.803Z,2.93
2023-08-07T02:48:46.592Z,2.23
2023-08-07T02:51:13.272Z,2.67
2023-08-07T02:53:40.229Z,2.43
2023-08-07T02:56:06.869Z,2.50
2023-08-07T02:58:33.636Z,2.63
2023-08-07T03:01:07.337Z,2.70
2023-08-07T03:03:34.149Z,2.30
2023-08-07T03:06:00.928Z,2.73
2023-08-07T03:08:27.578Z,2.83
2023-08-07T03:10:56.747Z,3.13
2023-08-07T03:13:24.368Z,2.77
2023-08-07T03:15:51.500Z,3.17
2023-08-07T03:18:18.610Z,2.77
2023-08-07T03:20:45.720Z,3.20
2023-08-07T03:23:12.413Z,3.03
2023-08-07T03:25:39.107Z,3.23
2023-08-07T03:28:05.727Z,2.80
2023-08-07T03:30:32.333Z,3.40
2023-08-07T03:32:58.949Z,2.43
2023-08-07T03:35:25.659Z,3.13
2023-08-07T03:37:52.323Z,2.30
2023-08-07T03:40:18.945Z,2.57
2023-08-07T03:42:45.598Z,2.93
2023-08-07T03:45:12.199Z,2.70
2023-08-07T03:47:38.859Z,2.53
2023-08-07T03:50:06.125Z,2.37
2023-08-07T03:52:32.809Z,2.40
2023-08-07T03:54:59.401Z,2.30
2023-08-07T03:57:26.601Z,2.07
2023-08-07T03:59:53.210Z,2.00
2023-08-07T04:02:19.906Z,2.10
2023-08-07T04:04:46.537Z,1.97
2023-08-07T04:07:13.128Z,2.17
2023-08-07T04:09:39.716Z,2.27
2023-08-07T04:12:06.806Z,2.00
2023-08-07T04:14:33.388Z,1.93
2023-08-07T04:17:01.583Z,2.37
2023-08-07T04:19:29.045Z,1.77
2023-08-07T04:21:55.708Z,1.77
2023-08-07T04:24:22.308Z,2.10
2023-08-07T04:26:49.197Z,2.00
2023-08-07T04:29:16.042Z,1.90
2023-08-07T04:31:42.794Z,1.67
2023-08-07T04:34:09.564Z,2.07
2023-08-07T04:36:36.160Z,1.60
2023-08-07T04:39:02.820Z,1.77
2023-08-07T04:41:29.429Z,1.60
2023-08-07T04:43:56.061Z,1.63
2023-08-07T04:46:22.758Z,1.50
2023-08-07T04:48:49.559Z,1.40
2023-08-07T04:51:16.602Z,1.03
2023-08-07T04:53:43.264Z,1.60
2023-08-07T04:56:09.850Z,1.50
2023-08-07T04:58:36.514Z,1.50
2023-08-07T05:01:03.159Z,1.60
2023-08-07T05:03:31.558Z,1.60
2023-08-07T05:06:02.081Z,1.70
2023-08-07T05:08:29.163Z,1.47
2023-08-07T05:10:55.820Z,1.50
2023-08-07T05:13:22.460Z,1.90
2023-08-07T05:15:49.946Z,1.50
2023-08-07T05:18:17.351Z,1.40
2023-08-07T05:20:44.268Z,1.50
2023-08-07T05:23:11.801Z,1.90
2023-08-07T05:25:38.995Z,2.00
2023-08-07T05:28:06.313Z,2.00
2023-08-07T05:30:33.227Z,2.27
2023-08-07T05:32:59.944Z,1.70
2023-08-07T05:35:26.843Z,1.80
2023-08-07T05:37:53.429Z,1.50
2023-08-07T05:40:20.040Z,1.90
2023-08-07T05:42:46.671Z,2.10
2023-08-07T05:45:13.357Z,1.77
2023-08-07T05:47:40.294Z,2.13
2023-08-07T05:50:07.428Z,1.80
2023-08-07T05:52:34.008Z,1.90
2023-08-07T05:55:00.627Z,1.97
2023-08-07T05:57:27.277Z,1.90
2023-08-07T05:59:53.865Z,1.70
2023-08-07T06:02:20.637Z,1.73
2023-08-07T06:04:47.590Z,1.23
2023-08-07T06:07:14.193Z,1.43
2023-08-07T06:09:40.786Z,1.67
2023-08-07T06:12:08.459Z,1.47
2023-08-07T06:14:35.033Z,1.60
2023-08-07T06:17:02.745Z,1.30
2023-08-07T06:19:32.578Z,1.20
2023-08-07T06:22:00.452Z,1.57
2023-08-07T06:24:27.572Z,1.10
2023-08-07T06:26:54.212Z,1.03
2023-08-07T06:29:20.882Z,1.00
2023-08-07T06:31:47.690Z,1.50
2023-08-07T06:34:14.345Z,1.20
2023-08-07T06:36:41.264Z,1.23
2023-08-07T06:39:07.942Z,1.47
2023-08-07T06:41:34.568Z,1.50
2023-08-07T06:44:01.190Z,1.70
2023-08-07T06:46:28.885Z,1.53
2023-08-07T06:48:55.671Z,1.70
2023-08-07T06:51:22.360Z,1.30
2023-08-07T06:53:48.964Z,1.47
2023-08-07T06:56:15.584Z,1.80
2023-08-07T06:58:42.319Z,1.40
2023-08-07T07:01:09.002Z,2.00
2023-08-07T07:03:35.748Z,1.67
2023-08-07T07:06:02.428Z,1.90
2023-08-07T07:08:29.063Z,1.80
2023-08-07T07:10:55.683Z,2.23
2023-08-07T07:13:22.317Z,2.23
2023-08-07T07:15:54.201Z,1.83
2023-08-07T07:18:20.835Z,1.80
2023-08-07T07:20:47.410Z,1.50
2023-08-07T07:23:14.030Z,1.60
2023-08-07T07:25:40.739Z,1.88
2023-08-07T07:28:07.603Z,1.70
2023-08-07T07:30:34.213Z,1.25
2023-08-07T07:33:00.856Z,1.73
2023-08-07T07:35:28.421Z,1.50
2023-08-07T07:37:55.013Z,1.80
2023-08-07T07:40:21.605Z,1.85
2023-08-07T07:42:48.192Z,1.60
2023-08-07T07:45:14.862Z,1.45
2023-08-07T07:47:41.908Z,1.50
2023-08-07T07:50:09.921Z,1.67
2023-08-07T07:52:36.589Z,1.60
2023-08-07T07:55:03.370Z,2.17
2023-08-07T07:57:30.175Z,1.85
2023-08-07T07:59:56.855Z,1.50
2023-08-07T08:02:25.281Z,1.30
2023-08-07T08:04:52.654Z,1.67
2023-08-07T08:07:19.940Z,1.30
2023-08-07T08:09:46.599Z,1.83
2023-08-07T08:12:13.215Z,1.40
2023-08-07T08:14:50.940Z,1.83
2023-08-07T08:17:23.961Z,1.52
2023-08-07T08:19:51.656Z,1.52
2023-08-07T08:22:19.190Z,1.35
2023-08-07T08:24:45.834Z,1.63
2023-08-07T08:27:12.444Z,1.30
2023-08-07T08:29:39.038Z,1.55
2023-08-07T08:32:06.066Z,1.05
2023-08-07T08:34:32.691Z,1.35
2023-08-07T08:36:59.260Z,1.33
2023-08-07T08:39:26.139Z,1.33
2023-08-07T08:41:53.878Z,1.45
2023-08-07T08:44:23.278Z,1.10
2023-08-07T08:46:54.880Z,1.20
2023-08-07T08:49:29.357Z,1.20
2023-08-07T08:51:56.537Z,1.63
2023-08-07T08:54:23.278Z,1.73
2023-08-07T08:56:51.139Z,1.52
2023-08-07T08:59:19.842Z,1.27
2023-08-07T09:01:47.844Z,1.23
2023-08-07T09:04:15.517Z,1.52
2023-08-07T09:06:44.471Z,1.20
2023-08-07T09:09:14.326Z,1.48
2023-08-07T09:11:43.709Z,1.42
2023-08-07T09:14:13.940Z,1.58
2023-08-07T09:16:40.889Z,1.10
2023-08-07T09:19:07.818Z,1.50
2023-08-07T09:21:35.396Z,1.52
2023-08-07T09:24:02.092Z,1.60
2023-08-07T09:26:29.112Z,1.58
2023-08-07T09:28:55.791Z,1.73
2023-08-07T09:31:27.336Z,1.45
2023-08-07T09:33:54.282Z,1.55
2023-08-07T09:36:20.995Z,1.67
2023-08-07T09:38:51.704Z,1.55
2023-08-07T09:41:22.406Z,1.70
2023-08-07T09:43:49.075Z,1.70
2023-08-07T09:46:15.780Z,1.88
2023-08-07T09:48:44.167Z,1.17
2023-08-07T09:51:11.345Z,1.02
2023-08-07T09:53:38.370Z,1.10
2023-08-07T09:56:05.373Z,1.15
2023-08-07T09:58:32.049Z,0.90
2023-08-07T10:01:05.719Z,1.25
2023-08-07T10:03:33.261Z,1.23
2023-08-07T10:06:00.410Z,1.13
2023-08-07T10:08:27.480Z,1.30
2023-08-07T10:10:54.256Z,1.30
2023-08-07T10:13:28.083Z,0.80
2023-08-07T10:16:05.093Z,0.88
2023-08-07T10:18:31.757Z,0.63
2023-08-07T10:20:59.754Z,1.10
2023-08-07T10:23:26.370Z,1.00
2023-08-07T10:25:54.396Z,1.10
2023-08-07T10:28:24.059Z,1.20
2023-08-07T10:30:51.357Z,1.50
2023-08-07T10:33:21.162Z,1.37
2023-08-07T10:35:51.915Z,1.03
2023-08-07T10:38:23.226Z,1.40
2023-08-07T10:41:00.013Z,1.60
2023-08-07T10:43:28.711Z,1.40
2023-08-07T10:46:05.469Z,1.60
2023-08-07T10:48:40.029Z,1.15
2023-08-07T10:51:07.138Z,1.60
2023-08-07T10:53:39.621Z,1.60
2023-08-07T10:56:09.489Z,1.50
2023-08-07T10:58:39.060Z,1.40
2023-08-07T11:01:36.559Z,1.70
2023-08-07T11:04:12.029Z,1.35
2023-08-07T11:06:40.111Z,1.20
2023-08-07T11:09:09.686Z,1.50
2023-08-07T11:11:40.911Z,1.70
2023-08-07T11:14:15.413Z,1.65
2023-08-07T11:16:42.666Z,1.70
2023-08-07T11:19:10.263Z,1.48
2023-08-07T11:21:38.044Z,1.33
2023-08-07T11:24:05.014Z,1.65
2023-08-07T11:26:32.167Z,1.60
2023-08-07T11:28:59.401Z,1.42
2023-08-07T11:31:26.663Z,1.10
2023-08-07T11:33:58.850Z,1.40
2023-08-07T11:36:26.135Z,1.50
2023-08-07T11:38:53.030Z,1.30
2023-08-07T11:41:20.581Z,1.50
2023-08-07T11:43:47.442Z,1.23
2023-08-07T11:46:15.636Z,1.20
2023-08-07T11:48:43.825Z,1.45
2023-08-07T11:51:10.932Z,1.25
2023-08-07T11:53:40.267Z,1.38
2023-08-07T11:56:17.547Z,1.40
2023-08-07T11:58:49.855Z,1.17
2023-08-07T12:01:22.345Z,1.77
2023-08-07T12:04:14.322Z,1.13
2023-08-07T12:06:57.298Z,1.50
2023-08-07T12:09:26.034Z,1.50
2023-08-07T12:11:58.300Z,1.27
2023-08-07T12:14:32.275Z,1.20
2023-08-07T12:16:59.095Z,1.10
2023-08-07T12:19:35.991Z,1.50
2023-08-07T12:22:05.083Z,1.17
2023-08-07T12:24:31.779Z,1.40
2023-08-07T12:26:58.714Z,1.30
2023-08-07T12:29:29.794Z,1.20
2023-08-07T12:31:56.842Z,1.37
2023-08-07T12:36:53.047Z,1.53
2023-08-07T12:39:20.625Z,1.30
2023-08-07T12:42:24.755Z,1.53
2023-08-07T12:44:36.068Z,1.57
2023-08-07T12:47:02.874Z,1.40
2023-08-07T12:49:29.508Z,1.57
2023-08-07T12:51:57.719Z,1.90
2023-08-07T12:54:24.357Z,1.60
2023-08-07T12:56:51.781Z,1.83
2023-08-07T12:59:18.388Z,1.73
2023-08-07T13:01:44.985Z,1.13
2023-08-07T13:04:13.358Z,1.50
2023-08-07T13:06:40.171Z,1.80
2023-08-07T13:09:06.869Z,1.70
2023-08-07T13:11:33.591Z,1.67
2023-08-07T13:14:00.180Z,1.43
2023-08-07T13:16:26.840Z,1.43
2023-08-07T13:18:53.461Z,1.40
2023-08-07T13:21:20.052Z,1.50
2023-08-07T13:23:46.684Z,1.47
2023-08-07T13:26:13.335Z,1.13
2023-08-07T13:28:39.939Z,1.50
2023-08-07T13:31:06.810Z,1.40
2023-08-07T13:33:33.488Z,1.27
2023-08-07T13:36:00.243Z,1.40
2023-08-07T13:38:27.036Z,1.40
2023-08-07T13:40:53.673Z,1.10
2023-08-07T13:43:20.317Z,1.30
2023-08-07T13:45:47.070Z,1.37
2023-08-07T13:48:13.763Z,1.20
2023-08-07T13:50:41.064Z,1.33
2023-08-07T13:53:14.354Z,1.70
2023-08-07T13:55:42.953Z,1.30
2023-08-07T13:58:10.567Z,1.53
2023-08-07T14:00:37.616Z,1.43
2023-08-07T14:03:04.657Z,1.40
2023-08-07T14:05:31.324Z,1.40
2023-08-07T14:07:58.770Z,1.40
2023-08-07T14:10:25.560Z,1.60
2023-08-07T14:12:52.192Z,1.73
2023-08-07T14:15:19.622Z,1.20
2023-08-07T14:17:46.252Z,1.50
2023-08-07T14:20:13.099Z,1.20
2023-08-07T14:22:40.866Z,1.10
2023-08-07T14:25:07.763Z,1.30
2023-08-07T14:27:34.857Z,1.33
2023-08-07T14:30:01.659Z,1.30
2023-08-07T14:32:28.403Z,1.20
2023-08-07T14:34:55.053Z,1.00
2023-08-07T14:37:21.901Z,0.93
2023-08-07T14:39:48.516Z,0.90
2023-08-07T14:42:15.325Z,1.10
2023-08-07T14:44:42.005Z,1.10
2023-08-07T14:47:08.680Z,1.30
2023-08-07T14:49:38.730Z,1.10
2023-08-07T14:52:07.002Z,1.23
2023-08-07T14:54:34.256Z,1.33
2023-08-07T14:57:00.961Z,1.33
2023-08-07T14:59:27.679Z,1.40
2023-08-07T15:01:54.320Z,1.27
2023-08-07T15:04:20.991Z,1.20
2023-08-07T15:06:49.313Z,1.50
2023-08-07T15:09:16.093Z,1.70
2023-08-07T15:11:42.798Z,1.40
2023-08-07T15:14:09.428Z,1.87
2023-08-07T15:16:38.385Z,1.60
2023-08-07T15:19:05.541Z,1.43
2023-08-07T15:21:32.636Z,1.43
2023-08-07T15:23:59.279Z,1.90
2023-08-07T15:26:26.162Z,1.60
2023-08-07T15:28:52.856Z,1.60
2023-08-07T15:31:19.552Z,1.60
2023-08-07T15:33:50.080Z,2.00
2023-08-07T15:36:17.200Z,1.37
2023-08-07T15:38:44.099Z,1.80
2023-08-07T15:41:13.908Z,1.77
2023-08-07T15:43:40.588Z,1.70
2023-08-07T15:46:07.396Z,1.30
2023-08-07T15:48:34.078Z,1.97
2023-08-07T15:51:00.786Z,1.90
2023-08-07T15:53:27.497Z,1.47
2023-08-07T15:55:54.117Z,1.70
2023-08-07T15:58:22.894Z,1.80
2023-08-07T16:00:49.515Z,1.50
2023-08-07T16:03:16.226Z,1.93
2023-08-07T16:05:42.940Z,1.73
2023-08-07T16:08:09.806Z,1.60
2023-08-07T16:10:38.657Z,1.87
2023-08-07T16:13:05.357Z,1.93
2023-08-07T16:15:31.962Z,1.60
2023-08-07T16:18:01.008Z,1.60
2023-08-07T16:20:27.721Z,1.70
2023-08-07T16:22:54.386Z,1.47
2023-08-07T16:25:21.110Z,2.07
2023-08-07T16:27:50.221Z,1.73
2023-08-07T16:30:17.233Z,1.37
2023-08-07T16:32:44.159Z,1.50
2023-08-07T16:35:10.827Z,1.53
2023-08-07T16:37:37.542Z,1.60
2023-08-07T16:40:05.156Z,1.20
2023-08-07T16:42:32.062Z,1.60
2023-08-07T16:44:59.063Z,1.80
2023-08-07T16:47:25.743Z,1.47
2023-08-07T16:49:52.374Z,1.60
2023-08-07T16:52:19.299Z,1.37
2023-08-07T16:54:49.497Z,1.23
2023-08-07T16:57:16.749Z,1.60
2023-08-07T16:59:43.577Z,1.80
2023-08-07T17:02:10.337Z,1.10
2023-08-07T17:04:38.714Z,1.40
2023-08-07T17:07:06.908Z,1.50
2023-08-07T17:09:33.972Z,1.53
2023-08-07T17:12:00.762Z,1.53
2023-08-07T17:14:27.484Z,1.20
2023-08-07T17:16:54.457Z,1.00
2023-08-07T17:19:22.434Z,1.20
2023-08-07T17:21:49.752Z,1.00
2023-08-07T17:24:16.373Z,1.03
2023-08-07T17:26:43.075Z,0.97
2023-08-07T17:29:09.792Z,0.93
2023-08-07T17:31:36.552Z,0.87
2023-08-07T17:34:03.939Z,1.20
2023-08-07T17:36:30.697Z,1.40
2023-08-07T17:38:58.060Z,1.13
2023-08-07T17:41:25.872Z,1.17
2023-08-07T17:43:52.543Z,1.37
2023-08-07T17:46:19.278Z,1.00
2023-08-07T17:48:45.932Z,1.17
2023-08-07T17:51:13.676Z,1.40
2023-08-07T17:53:41.257Z,1.40
2023-08-07T17:56:07.993Z,1.10
2023-08-07T17:58:34.641Z,1.27
2023-08-07T18:01:01.554Z,1.30
2023-08-07T18:03:28.194Z,0.90
2023-08-07T18:05:54.907Z,1.13
2023-08-07T18:08:22.222Z,1.20
2023-08-07T18:10:48.965Z,1.13
2023-08-07T18:13:16.208Z,1.30
2023-08-07T18:15:42.871Z,1.10
2023-08-07T18:18:09.725Z,1.10
2023-08-07T18:20:37.158Z,1.07
2023-08-07T18:23:04.101Z,1.20
2023-08-07T18:25:30.790Z,0.90
2023-08-07T18:27:57.442Z,0.93
2023-08-07T18:30:24.157Z,1.30
2023-08-07T18:32:52.501Z,1.17
2023-08-07T18:35:19.356Z,1.10
2023-08-07T18:37:46.597Z,1.00
2023-08-07T18:40:13.635Z,1.20
2023-08-07T18:42:40.449Z,1.60
2023-08-07T18:45:07.643Z,1.00
2023-08-07T18:47:34.302Z,1.40
2023-08-07T18:50:01.025Z,1.00
2023-08-07T18:52:27.669Z,1.60
2023-08-07T18:54:56.166Z,1.20
2023-08-07T18:57:23.014Z,1.17
2023-08-07T18:59:49.667Z,1.20
2023-08-07T19:02:16.454Z,1.40
2023-08-07T19:04:43.154Z,1.30
2023-08-07T19:07:10.715Z,1.77
2023-08-07T19:09:37.407Z,1.00
2023-08-07T19:12:04.678Z,1.00
2023-08-07T19:14:31.440Z,1.53
2023-08-07T19:16:58.314Z,1.03
2023-08-07T19:19:25.266Z,1.37
2023-08-07T19:21:51.887Z,1.50
2023-08-07T19:24:18.517Z,1.27
2023-08-07T19:26:45.185Z,1.07
2023-08-07T19:29:13.432Z,1.30
2023-08-07T19:31:40.091Z,1.20
2023-08-07T19:34:09.730Z,1.60
2023-08-07T19:36:39.778Z,1.20
2023-08-07T19:39:08.618Z,1.23
2023-08-07T19:41:36.808Z,1.10
2023-08-07T19:44:04.098Z,1.43
2023-08-07T19:46:30.830Z,1.50
2023-08-07T19:48:57.862Z,1.67
2023-08-07T19:51:24.640Z,1.30
2023-08-07T19:54:01.481Z,1.23
2023-08-07T19:56:30.835Z,1.10
2023-08-07T19:59:00.125Z,1.17
2023-08-07T20:01:27.453Z,1.30
2023-08-07T20:03:54.123Z,1.40
2023-08-07T20:06:20.805Z,1.10
2023-08-07T20:08:47.970Z,1.40
2023-08-07T20:11:14.584Z,1.43
2023-08-07T20:13:41.271Z,0.97
2023-08-07T20:16:07.960Z,0.90
2023-08-07T20:18:34.714Z,1.07
2023-08-07T20:21:01.409Z,1.40
2023-08-07T20:23:28.135Z,1.00
2023-08-07T20:25:55.791Z,1.03
2023-08-07T20:28:22.461Z,1.17
2023-08-07T20:30:49.347Z,1.20
2023-08-07T20:33:16.005Z,1.03
2023-08-07T20:35:42.797Z,0.93
2023-08-07T20:38:09.467Z,1.20
2023-08-07T20:40:36.131Z,1.10
2023-08-07T20:43:03.526Z,1.00
2023-08-07T20:45:30.206Z,1.30
2023-08-07T20:47:56.872Z,1.23
2023-08-07T20:50:23.738Z,1.10
2023-08-07T20:52:50.365Z,1.10
2023-08-07T20:55:17.141Z,1.23
2023-08-07T20:57:43.942Z,1.10
2023-08-07T21:00:11.249Z,1.47
2023-08-07T21:02:37.938Z,1.00
2023-08-07T21:05:05.038Z,0.87
2023-08-07T21:07:31.706Z,1.30
2023-08-07T21:10:01.087Z,0.80
2023-08-07T21:12:28.249Z,1.10
2023-08-07T21:14:54.936Z,1.13
2023-08-07T21:17:21.568Z,0.93
2023-08-07T21:19:49.125Z,1.10
2023-08-07T21:22:15.938Z,1.10
2023-08-07T21:24:42.554Z,1.20
2023-08-07T21:27:09.220Z,1.20
2023-08-07T21:29:36.077Z,1.03
2023-08-07T21:32:03.037Z,1.13
2023-08-07T21:34:29.648Z,1.30
2023-08-07T21:36:56.350Z,1.00
2023-08-07T21:39:23.092Z,1.07
2023-08-07T21:41:49.685Z,1.03
2023-08-07T21:44:16.843Z,1.20
2023-08-07T21:46:46.395Z,1.40
2023-08-07T21:49:13.074Z,0.97
2023-08-07T21:51:39.725Z,1.17
2023-08-07T21:54:06.321Z,1.37
2023-08-07T21:56:32.943Z,1.30
2023-08-07T21:58:59.690Z,1.00
2023-08-07T22:01:26.811Z,1.40
2023-08-07T22:03:54.000Z,1.10
2023-08-07T22:06:20.759Z,1.10
2023-08-07T22:08:47.379Z,1.17
2023-08-07T22:11:15.316Z,1.10
2023-08-07T22:13:41.931Z,1.17
2023-08-07T22:16:08.548Z,1.03
2023-08-07T22:18:35.476Z,0.87
2023-08-07T22:21:02.131Z,1.30
2023-08-07T22:23:28.821Z,1.37
2023-08-07T22:25:56.309Z,0.87
2023-08-07T22:28:23.297Z,1.20
2023-08-07T22:30:51.227Z,1.00
2023-08-07T22:33:18.391Z,1.00
2023-08-07T22:35:45.069Z,1.20
2023-08-07T22:38:11.648Z,1.10
2023-08-07T22:40:38.657Z,1.40
2023-08-07T22:43:05.522Z,1.00
2023-08-07T22:45:32.176Z,0.90
2023-08-07T22:47:58.991Z,1.20
2023-08-07T22:50:25.658Z,1.40
2023-08-07T22:52:52.283Z,1.27
2023-08-07T22:55:18.938Z,1.53
2023-08-07T22:57:45.541Z,1.23
2023-08-07T23:00:12.973Z,1.20
2023-08-07T23:02:40.335Z,1.00
2023-08-07T23:05:07.582Z,1.23
2023-08-07T23:07:34.349Z,1.30
2023-08-07T23:10:01.279Z,1.27
2023-08-07T23:12:28.172Z,1.20
2023-08-07T23:14:54.789Z,1.40
2023-08-07T23:17:21.373Z,1.47
2023-08-07T23:19:48.015Z,1.10
2023-08-07T23:22:14.689Z,1.10
2023-08-07T23:24:41.284Z,1.10
2023-08-07T23:27:08.399Z,1.10
2023-08-07T23:29:35.767Z,1.47
2023-08-07T23:32:02.472Z,1.50
2023-08-07T23:34:29.149Z,1.10
2023-08-07T23:36:55.790Z,1.33
2023-08-07T23:39:22.608Z,1.67
2023-08-07T23:41:49.240Z,1.00
2023-08-07T23:44:15.859Z,1.30
2023-08-07T23:46:42.507Z,1.40
2023-08-07T23:49:09.164Z,1.30
2023-08-07T23:51:35.763Z,1.23
2023-08-07T23:54:02.339Z,1.17
2023-08-07T23:56:28.927Z,1.00
2023-08-07T23:58:55.520Z,1.40
